createdAt,value
2023-03-28T00:01:17.530Z,43.40
2023-03-28T00:03:52.569Z,43.30
2023-03-28T00:06:28.871Z,42.90
2023-03-28T00:09:05.383Z,42.70
2023-03-28T00:11:40.362Z,42.30
2023-03-28T00:14:15.376Z,42.30
2023-03-28T00:16:50.377Z,42.00
2023-03-28T00:19:25.223Z,42.00
2023-03-28T00:22:00.367Z,42.10
2023-03-28T00:24:38.778Z,42.10
2023-03-28T00:27:13.646Z,42.20
2023-03-28T00:29:48.543Z,42.40
2023-03-28T00:32:23.449Z,42.50
2023-03-28T00:34:58.427Z,42.60
2023-03-28T00:37:34.530Z,42.60
2023-03-28T00:40:10.442Z,42.70
2023-03-28T00:42:45.456Z,43.10
2023-03-28T00:45:21.627Z,42.20
2023-03-28T00:48:14.617Z,42.50
2023-03-28T00:50:51.401Z,42.60
2023-03-28T00:53:26.486Z,42.10
2023-03-28T00:56:08.838Z,41.90
2023-03-28T00:58:44.905Z,41.70
2023-03-28T01:01:20.647Z,41.10
2023-03-28T01:04:04.251Z,41.20
2023-03-28T01:06:46.439Z,41.30
2023-03-28T01:09:24.720Z,41.40
2023-03-28T01:12:01.684Z,41.40
2023-03-28T01:14:39.162Z,41.10
2023-03-28T01:17:16.041Z,41.60
2023-03-28T01:20:04.116Z,41.80
2023-03-28T01:23:23.415Z,41.90
2023-03-28T01:26:42.116Z,42.00
2023-03-28T01:30:08.548Z,42.00
2023-03-28T01:33:53.447Z,42.10
2023-03-28T01:36:46.726Z,42.30
2023-03-28T01:39:42.522Z,42.40
2023-03-28T01:42:34.827Z,42.80
2023-03-28T01:45:28.719Z,42.90
2023-03-28T01:48:42.366Z,43.10
2023-03-28T01:51:42.162Z,43.20
2023-03-28T01:54:34.260Z,43.60
2023-03-28T01:57:29.624Z,43.30
2023-03-28T02:00:23.585Z,44.00
2023-03-28T02:03:25.709Z,44.20
2023-03-28T02:06:08.990Z,44.40
2023-03-28T02:08:46.697Z,44.50
2023-03-28T02:11:33.833Z,44.80
2023-03-28T02:14:26.371Z,45.00
2023-03-28T02:17:29.022Z,45.80
2023-03-28T02:20:28.699Z,46.10
2023-03-28T02:23:19.584Z,46.20
2023-03-28T02:25:58.477Z,46.10
2023-03-28T02:28:56.896Z,46.00
2023-03-28T02:32:04.444Z,46.20
2023-03-28T02:34:39.405Z,46.50
2023-03-28T02:37:54.248Z,46.40
2023-03-28T02:41:10.194Z,46.40
2023-03-28T02:44:01.607Z,46.90
2023-03-28T02:47:13.964Z,47.30
2023-03-28T02:50:02.774Z,47.50
2023-03-28T02:52:58.573Z,47.20
2023-03-28T02:56:01.933Z,47.80
2023-03-28T02:59:03.813Z,48.10
2023-03-28T03:01:41.571Z,48.50
2023-03-28T03:04:17.368Z,48.50
2023-03-28T03:06:52.809Z,48.80
2023-03-28T03:09:28.348Z,48.90
2023-03-28T03:12:03.244Z,49.00
2023-03-28T03:14:39.005Z,49.10
2023-03-28T03:17:44.046Z,48.90
2023-03-28T03:20:19.470Z,48.50
2023-03-28T03:22:55.515Z,48.60
2023-03-28T03:25:31.395Z,48.40
2023-03-28T03:28:16.285Z,49.00
2023-03-28T03:30:53.342Z,48.80
2023-03-28T03:33:35.314Z,49.00
2023-03-28T03:36:13.251Z,48.70
2023-03-28T03:38:49.615Z,48.10
2023-03-28T03:41:29.533Z,48.50
2023-03-28T03:44:04.739Z,48.30
2023-03-28T03:46:40.483Z,48.30
2023-03-28T03:49:15.475Z,48.10
2023-03-28T03:51:51.301Z,47.80
2023-03-28T03:54:26.268Z,47.60
2023-03-28T03:57:02.828Z,47.60
2023-03-28T03:59:38.203Z,47.50
2023-03-28T04:02:13.436Z,47.60
2023-03-28T04:04:54.255Z,47.80
2023-03-28T04:07:36.168Z,47.60
2023-03-28T04:10:12.684Z,47.70
2023-03-28T04:12:47.691Z,47.70
2023-03-28T04:15:22.641Z,47.60
2023-03-28T04:18:29.821Z,47.60
2023-03-28T04:21:06.493Z,47.60
2023-03-28T04:23:48.787Z,47.70
2023-03-28T04:26:43.655Z,47.80
2023-03-28T04:29:25.419Z,47.50
2023-03-28T04:32:21.273Z,47.50
2023-03-28T04:35:10.132Z,47.70
2023-03-28T04:37:45.064Z,47.80
2023-03-28T04:40:21.633Z,47.90
2023-03-28T04:43:06.952Z,48.30
2023-03-28T04:45:45.304Z,48.30
2023-03-28T04:48:25.733Z,48.20
2023-03-28T04:51:00.900Z,48.00
2023-03-28T04:53:36.510Z,48.00
2023-03-28T04:56:40.838Z,48.10
2023-03-28T04:59:17.453Z,48.40
2023-03-28T05:01:53.441Z,48.20
2023-03-28T05:04:47.266Z,48.20
2023-03-28T05:07:22.627Z,48.20
2023-03-28T05:09:58.332Z,48.20
2023-03-28T05:12:40.437Z,48.20
2023-03-28T05:15:23.068Z,48.40
2023-03-28T05:18:11.970Z,48.60
2023-03-28T05:20:46.922Z,48.80
2023-03-28T05:23:21.834Z,48.90
2023-03-28T05:25:59.184Z,49.10
2023-03-28T05:28:38.059Z,49.10
2023-03-28T05:31:13.812Z,49.40
2023-03-28T05:33:48.853Z,49.60
2023-03-28T05:36:32.838Z,49.50
2023-03-28T05:39:08.311Z,49.70
2023-03-28T05:41:43.268Z,49.90
2023-03-28T05:44:19.616Z,49.80
2023-03-28T05:47:17.597Z,50.20
2023-03-28T05:49:54.821Z,50.20
2023-03-28T05:52:30.265Z,50.20
2023-03-28T05:55:06.941Z,50.40
2023-03-28T05:57:41.975Z,50.60
2023-03-28T06:00:18.677Z,50.50
2023-03-28T06:02:54.988Z,50.30
2023-03-28T06:05:39.789Z,50.50
2023-03-28T06:08:25.100Z,50.60
2023-03-28T06:11:02.358Z,50.30
2023-03-28T06:13:41.832Z,50.40
2023-03-28T06:16:18.753Z,50.50
2023-03-28T06:19:17.213Z,50.00
2023-03-28T06:21:58.101Z,49.80
2023-03-28T06:24:33.902Z,48.90
2023-03-28T06:27:09.242Z,48.40
2023-03-28T06:29:47.332Z,47.60
2023-03-28T06:32:22.479Z,47.10
2023-03-28T06:34:57.522Z,46.00
2023-03-28T06:37:32.729Z,45.90
2023-03-28T06:40:14.023Z,45.60
2023-03-28T06:42:48.991Z,45.40
2023-03-28T06:45:29.993Z,45.20
2023-03-28T06:48:11.910Z,44.80
2023-03-28T06:51:06.080Z,44.50
2023-03-28T06:53:41.571Z,43.90
2023-03-28T06:56:17.221Z,43.90
2023-03-28T06:58:52.157Z,43.50
2023-03-28T07:01:33.168Z,43.30
2023-03-28T07:04:13.978Z,42.80
2023-03-28T07:06:51.298Z,41.90
2023-03-28T07:09:26.299Z,40.70
2023-03-28T07:12:10.681Z,40.90
2023-03-28T07:14:46.938Z,40.90
2023-03-28T07:17:22.010Z,40.20
2023-03-28T07:19:57.326Z,39.30
2023-03-28T07:22:32.416Z,38.80
2023-03-28T07:25:08.311Z,38.10
2023-03-28T07:27:43.789Z,38.20
2023-03-28T07:30:19.017Z,37.40
2023-03-28T07:33:01.655Z,37.10
2023-03-28T07:35:43.034Z,37.10
2023-03-28T07:38:21.979Z,36.80
2023-03-28T07:41:01.406Z,36.50
2023-03-28T07:43:39.358Z,36.30
2023-03-28T07:46:16.188Z,36.20
2023-03-28T07:48:51.399Z,35.90
2023-03-28T07:51:26.626Z,35.40
2023-03-28T07:54:01.809Z,35.80
2023-03-28T07:56:37.312Z,35.00
2023-03-28T07:59:27.439Z,34.90
2023-03-28T08:02:02.784Z,34.80
2023-03-28T08:04:37.704Z,34.90
2023-03-28T08:07:15.853Z,34.80
2023-03-28T08:09:54.771Z,35.00
2023-03-28T08:12:35.364Z,35.00
2023-03-28T08:15:11.348Z,34.80
2023-03-28T08:17:46.406Z,34.30
2023-03-28T08:20:21.830Z,34.00
2023-03-28T08:23:09.461Z,33.80
2023-03-28T08:26:06.221Z,34.00
2023-03-28T08:28:41.845Z,34.10
2023-03-28T08:31:17.600Z,33.50
2023-03-28T08:33:58.919Z,33.40
2023-03-28T08:36:41.902Z,32.80
2023-03-28T08:39:29.060Z,32.70
2023-03-28T08:42:45.252Z,32.80
2023-03-28T08:45:44.426Z,33.00
2023-03-28T08:48:33.541Z,32.10
2023-03-28T08:51:35.504Z,30.30
2023-03-28T08:54:23.469Z,30.00
2023-03-28T08:57:03.186Z,30.00
2023-03-28T08:59:53.448Z,30.10
2023-03-28T09:02:30.028Z,29.60
2023-03-28T09:05:52.373Z,29.20
2023-03-28T09:08:56.381Z,29.10
2023-03-28T09:12:08.472Z,29.60
2023-03-28T09:15:28.793Z,29.30
2023-03-28T09:18:34.065Z,29.20
2023-03-28T09:21:32.289Z,29.50
2023-03-28T09:24:25.837Z,29.80
2023-03-28T09:27:37.846Z,29.10
2023-03-28T09:30:20.809Z,28.70
2023-03-28T09:32:59.745Z,28.30
2023-03-28T09:35:34.787Z,27.70
2023-03-28T09:38:21.864Z,27.80
2023-03-28T09:41:00.879Z,28.10
2023-03-28T09:43:53.977Z,27.80
2023-03-28T09:46:50.916Z,27.20
2023-03-28T09:49:39.168Z,25.80
2023-03-28T09:52:21.282Z,26.00
2023-03-28T09:54:56.385Z,26.10
2023-03-28T09:58:11.745Z,26.50
2023-03-28T10:01:31.766Z,27.30
2023-03-28T10:04:39.455Z,26.70
2023-03-28T10:07:45.600Z,25.40
2023-03-28T10:11:07.026Z,25.60
2023-03-28T10:13:47.329Z,25.60
2023-03-28T10:16:34.200Z,25.80
2023-03-28T10:19:14.183Z,25.50
2023-03-28T10:22:13.282Z,26.00
2023-03-28T10:24:54.662Z,26.10
2023-03-28T10:27:33.578Z,26.00
2023-03-28T10:30:30.411Z,25.80
2023-03-28T10:33:23.634Z,26.00
2023-03-28T10:36:32.885Z,26.00
2023-03-28T10:39:26.795Z,25.60
2023-03-28T10:42:27.586Z,25.50
2023-03-28T10:45:34.723Z,25.60
2023-03-28T10:48:22.682Z,25.90
2023-03-28T10:51:08.195Z,26.10
2023-03-28T10:54:11.584Z,25.50
2023-03-28T10:57:06.123Z,25.40
2023-03-28T11:00:12.321Z,24.60
2023-03-28T11:02:55.359Z,24.60
2023-03-28T11:06:06.252Z,25.40
2023-03-28T11:09:20.114Z,26.00
2023-03-28T11:12:51.189Z,25.80
2023-03-28T11:16:01.592Z,25.90
2023-03-28T11:19:17.923Z,24.80
2023-03-28T11:22:52.305Z,24.80
2023-03-28T11:26:00.580Z,23.60
2023-03-28T11:29:06.089Z,24.60
2023-03-28T11:32:08.753Z,24.10
2023-03-28T11:35:06.890Z,23.70
2023-03-28T11:38:03.380Z,23.50
2023-03-28T11:41:22.024Z,23.50
2023-03-28T11:44:23.659Z,24.00
2023-03-28T11:47:28.770Z,24.20
2023-03-28T11:50:53.777Z,24.80
2023-03-28T11:53:56.255Z,23.80
2023-03-28T11:56:48.927Z,23.20
2023-03-28T12:00:07.058Z,23.30
2023-03-28T12:03:02.027Z,23.20
2023-03-28T12:05:47.999Z,23.80
2023-03-28T12:08:54.940Z,22.70
2023-03-28T12:12:04.398Z,23.00
2023-03-28T12:15:17.177Z,23.70
2023-03-28T12:18:38.767Z,24.20
2023-03-28T12:21:33.981Z,23.90
2023-03-28T12:24:20.493Z,24.00
2023-03-28T12:27:47.348Z,25.50
2023-03-28T12:30:58.912Z,24.80
2023-03-28T12:34:01.083Z,25.80
2023-03-28T12:37:17.467Z,24.80
2023-03-28T12:40:15.567Z,25.10
2023-03-28T12:42:53.806Z,25.20
2023-03-28T12:45:38.678Z,25.90
2023-03-28T12:48:33.778Z,23.20
2023-03-28T12:51:18.953Z,22.70
2023-03-28T12:54:09.025Z,21.50
2023-03-28T12:57:02.973Z,21.70
2023-03-28T12:59:39.642Z,21.40
2023-03-28T13:02:36.020Z,21.20
2023-03-28T13:05:29.385Z,21.20
2023-03-28T13:08:42.725Z,20.90
2023-03-28T13:11:49.761Z,21.40
2023-03-28T13:14:42.640Z,21.80
2023-03-28T13:17:24.812Z,23.60
2023-03-28T13:20:09.356Z,25.20
2023-03-28T13:22:53.669Z,24.80
2023-03-28T13:25:37.811Z,23.30
2023-03-28T13:28:12.661Z,23.50
2023-03-28T13:31:03.822Z,23.30
2023-03-28T13:33:49.415Z,24.10
2023-03-28T13:36:33.390Z,23.40
2023-03-28T13:39:25.086Z,23.10
2023-03-28T13:42:00.902Z,23.00
2023-03-28T13:44:42.265Z,23.30
2023-03-28T13:47:32.867Z,22.70
2023-03-28T13:50:33.006Z,21.80
2023-03-28T13:53:08.068Z,23.80
2023-03-28T13:55:44.099Z,23.10
2023-03-28T13:58:19.197Z,23.40
2023-03-28T14:01:18.950Z,24.00
2023-03-28T14:03:55.274Z,25.40
2023-03-28T14:06:31.100Z,21.80
2023-03-28T14:09:06.184Z,22.90
2023-03-28T14:11:42.152Z,22.00
2023-03-28T14:14:34.568Z,21.70
2023-03-28T14:17:23.994Z,23.40
2023-03-28T14:20:05.317Z,23.10
2023-03-28T14:22:59.101Z,21.30
2023-03-28T14:25:37.550Z,23.00
2023-03-28T14:28:15.272Z,23.70
2023-03-28T14:30:50.205Z,22.70
2023-03-28T14:33:25.597Z,22.50
2023-03-28T14:36:03.904Z,22.80
2023-03-28T14:38:39.532Z,22.60
2023-03-28T14:41:25.640Z,23.70
2023-03-28T14:44:02.100Z,22.10
2023-03-28T14:46:37.056Z,20.60
2023-03-28T14:49:19.701Z,20.80
2023-03-28T14:52:03.373Z,21.70
2023-03-28T14:54:46.685Z,22.20
2023-03-28T14:57:21.775Z,22.40
2023-03-28T14:59:57.885Z,20.80
2023-03-28T15:02:41.282Z,21.20
2023-03-28T15:05:19.883Z,22.60
2023-03-28T15:08:01.063Z,21.00
2023-03-28T15:10:36.175Z,20.20
2023-03-28T15:13:23.341Z,21.60
2023-03-28T15:15:58.605Z,21.00
2023-03-28T15:18:44.300Z,21.90
2023-03-28T15:21:23.688Z,21.50
2023-03-28T15:24:01.462Z,21.80
2023-03-28T15:26:47.255Z,20.60
2023-03-28T15:29:25.392Z,21.40
2023-03-28T15:32:05.755Z,22.10
2023-03-28T15:34:55.444Z,22.80
2023-03-28T15:37:42.740Z,22.00
2023-03-28T15:40:29.175Z,21.60
2023-03-28T15:43:06.809Z,22.20
2023-03-28T15:45:43.397Z,21.40
2023-03-28T15:48:19.896Z,22.10
2023-03-28T15:50:56.335Z,21.30
2023-03-28T15:53:32.157Z,21.10
2023-03-28T15:56:23.779Z,21.20
2023-03-28T15:59:17.800Z,21.10
2023-03-28T16:02:22.498Z,21.60
2023-03-28T16:05:10.393Z,21.30
2023-03-28T16:07:48.259Z,21.50
2023-03-28T16:10:25.559Z,21.40
2023-03-28T16:13:19.166Z,20.40
2023-03-28T16:16:26.872Z,21.10
2023-03-28T16:19:28.353Z,21.30
2023-03-28T16:22:03.912Z,20.80
2023-03-28T16:24:38.788Z,21.80
2023-03-28T16:27:13.743Z,20.70
2023-03-28T16:29:48.986Z,20.80
2023-03-28T16:32:24.858Z,22.10
2023-03-28T16:34:59.759Z,21.50
2023-03-28T16:37:34.627Z,21.60
2023-03-28T16:40:10.525Z,22.10
2023-03-28T16:42:45.562Z,21.90
2023-03-28T16:45:20.839Z,22.70
2023-03-28T16:47:57.751Z,21.40
2023-03-28T16:50:33.148Z,21.70
2023-03-28T16:53:08.044Z,21.50
2023-03-28T16:55:43.287Z,21.10
2023-03-28T16:58:18.191Z,21.50
2023-03-28T17:00:55.863Z,22.00
2023-03-28T17:03:30.965Z,22.00
2023-03-28T17:06:09.161Z,21.20
2023-03-28T17:08:44.680Z,21.70
2023-03-28T17:11:20.897Z,22.30
2023-03-28T17:13:57.155Z,21.90
2023-03-28T17:16:32.253Z,22.10
2023-03-28T17:19:07.567Z,22.20
2023-03-28T17:21:43.396Z,22.30
2023-03-28T17:24:18.975Z,22.10
2023-03-28T17:26:54.089Z,22.50
2023-03-28T17:29:29.292Z,21.90
2023-03-28T17:32:04.662Z,22.20
2023-03-28T17:34:39.782Z,22.20
2023-03-28T17:37:14.793Z,21.80
2023-03-28T17:39:50.268Z,22.10
2023-03-28T17:42:25.427Z,22.00
2023-03-28T17:45:00.774Z,22.30
2023-03-28T17:47:35.862Z,22.40
2023-03-28T17:50:11.048Z,22.20
2023-03-28T17:52:45.952Z,22.40
2023-03-28T17:55:21.311Z,22.20
2023-03-28T17:57:56.717Z,22.50
2023-03-28T18:00:31.791Z,22.70
2023-03-28T18:03:07.388Z,22.90
2023-03-28T18:06:00.491Z,22.90
2023-03-28T18:08:36.346Z,22.80
2023-03-28T18:11:14.789Z,22.70
2023-03-28T18:13:52.590Z,22.80
2023-03-28T18:16:28.874Z,22.90
2023-03-28T18:19:06.734Z,23.00
2023-03-28T18:21:41.740Z,22.90
2023-03-28T18:24:16.996Z,22.90
2023-03-28T18:26:52.239Z,22.90
2023-03-28T18:29:27.277Z,23.10
2023-03-28T18:32:02.386Z,23.30
2023-03-28T18:34:37.650Z,23.60
2023-03-28T18:37:12.952Z,23.20
2023-03-28T18:39:47.905Z,23.30
2023-03-28T18:42:22.929Z,23.30
2023-03-28T18:45:00.969Z,23.30
2023-03-28T18:47:41.138Z,23.20
2023-03-28T18:50:16.275Z,23.20
2023-03-28T18:52:51.241Z,23.20
2023-03-28T18:55:26.272Z,23.50
2023-03-28T18:58:04.492Z,23.50
2023-03-28T19:00:40.710Z,23.50
2023-03-28T19:03:17.238Z,23.50
2023-03-28T19:06:00.901Z,23.70
2023-03-28T19:08:36.804Z,23.70
2023-03-28T19:11:16.682Z,23.80
2023-03-28T19:13:53.980Z,23.60
2023-03-28T19:16:29.647Z,23.90
2023-03-28T19:19:05.349Z,23.90
2023-03-28T19:21:40.453Z,23.80
2023-03-28T19:24:15.774Z,23.80
2023-03-28T19:26:52.432Z,23.90
2023-03-28T19:29:28.530Z,24.00
2023-03-28T19:32:03.667Z,23.80
2023-03-28T19:34:38.829Z,23.90
2023-03-28T19:37:14.015Z,23.80
2023-03-28T19:39:48.908Z,24.00
2023-03-28T19:42:23.816Z,24.00
2023-03-28T19:44:58.722Z,24.20
2023-03-28T19:47:33.693Z,24.20
2023-03-28T19:50:11.582Z,24.20
2023-03-28T19:52:47.013Z,24.20
2023-03-28T19:55:22.070Z,24.30
2023-03-28T19:57:58.301Z,24.50
2023-03-28T20:00:33.381Z,24.60
2023-03-28T20:03:08.841Z,24.60
2023-03-28T20:05:48.291Z,24.70
2023-03-28T20:08:23.172Z,24.50
2023-03-28T20:10:58.318Z,24.60
2023-03-28T20:13:33.232Z,24.70
2023-03-28T20:16:10.967Z,24.60
2023-03-28T20:18:46.363Z,24.70
2023-03-28T20:21:21.344Z,24.60
2023-03-28T20:23:58.537Z,24.70
2023-03-28T20:26:34.062Z,24.70
2023-03-28T20:29:13.604Z,24.60
2023-03-28T20:31:48.567Z,24.80
2023-03-28T20:34:23.526Z,24.80
2023-03-28T20:37:01.511Z,24.90
2023-03-28T20:39:37.023Z,24.80
2023-03-28T20:42:12.717Z,24.80
2023-03-28T20:44:48.878Z,24.80
2023-03-28T20:47:25.236Z,25.10
2023-03-28T20:50:05.551Z,24.70
2023-03-28T20:52:41.026Z,24.80
2023-03-28T20:55:16.033Z,24.90
2023-03-28T20:57:50.923Z,25.00
2023-03-28T21:00:30.093Z,25.00
2023-03-28T21:03:05.803Z,24.80
2023-03-28T21:05:43.647Z,24.50
2023-03-28T21:08:20.746Z,24.40
2023-03-28T21:10:56.130Z,24.30
2023-03-28T21:13:31.276Z,24.40
2023-03-28T21:16:07.283Z,24.20
2023-03-28T21:18:42.304Z,24.30
2023-03-28T21:21:19.968Z,24.60
2023-03-28T21:23:54.980Z,24.80
2023-03-28T21:26:30.021Z,24.50
2023-03-28T21:29:05.045Z,24.50
2023-03-28T21:31:40.043Z,24.60
2023-03-28T21:34:15.484Z,24.60
2023-03-28T21:36:50.375Z,24.80
2023-03-28T21:39:25.301Z,24.90
2023-03-28T21:42:00.222Z,25.00
2023-03-28T21:44:35.103Z,24.90
2023-03-28T21:47:10.396Z,24.90
2023-03-28T21:49:46.119Z,24.80
2023-03-28T21:52:21.384Z,24.50
2023-03-28T21:54:56.268Z,25.10
2023-03-28T21:57:33.460Z,25.20
2023-03-28T22:00:14.891Z,25.20
2023-03-28T22:02:50.455Z,24.70
2023-03-28T22:05:29.586Z,25.20
2023-03-28T22:08:05.158Z,24.80
2023-03-28T22:10:48.131Z,25.00
2023-03-28T22:13:23.990Z,25.10
2023-03-28T22:15:59.994Z,25.20
2023-03-28T22:18:38.770Z,25.30
2023-03-28T22:21:14.170Z,25.40
2023-03-28T22:23:49.212Z,25.40
2023-03-28T22:26:28.170Z,25.40
2023-03-28T22:29:03.100Z,25.40
2023-03-28T22:31:38.083Z,25.40
2023-03-28T22:34:15.339Z,24.90
2023-03-28T22:36:50.399Z,25.70
2023-03-28T22:39:25.278Z,26.00
2023-03-28T22:42:00.589Z,26.30
2023-03-28T22:44:36.428Z,26.40
2023-03-28T22:47:12.024Z,26.50
2023-03-28T22:49:46.964Z,26.50
2023-03-28T22:52:21.858Z,26.50
2023-03-28T22:54:56.862Z,26.60
2023-03-28T22:57:32.288Z,27.40
2023-03-28T23:00:09.334Z,27.80
2023-03-28T23:02:44.570Z,28.50
2023-03-28T23:05:20.331Z,29.10
2023-03-28T23:07:55.503Z,29.40
2023-03-28T23:10:31.990Z,30.10
2023-03-28T23:13:08.381Z,30.80
2023-03-28T23:15:43.760Z,31.40
2023-03-28T23:18:19.184Z,32.00
2023-03-28T23:20:54.309Z,32.10
2023-03-28T23:23:29.493Z,33.20
2023-03-28T23:26:04.749Z,34.10
2023-03-28T23:28:40.402Z,34.60
2023-03-28T23:31:15.364Z,36.30
2023-03-28T23:33:50.447Z,36.90
2023-03-28T23:36:26.189Z,37.20
2023-03-28T23:39:01.629Z,37.50
2023-03-28T23:41:36.982Z,38.00
2023-03-28T23:44:11.997Z,38.50
2023-03-28T23:46:49.710Z,38.70
2023-03-28T23:49:24.697Z,38.70
2023-03-28T23:51:59.934Z,38.60
2023-03-28T23:54:38.294Z,38.80
2023-03-28T23:57:13.571Z,38.90
2023-03-28T23:59:48.564Z,38.90
